Airport View

Enter AWOS ICAO identifier for current METAR.

ex. KFNL

KPWD 250110Z AUTO 20007KT 10SM FEW055 12/05 A2999 RMK A01 Plentywood

25 May 2020 01:30

Frequency: 135.025

Phone: 406-765-2149

Other Area AWOS: CWAQ - KPO1 - KD50 - KISN